createdAt,value
2023-05-11T00:01:05.571Z,101938.72
2023-05-11T00:03:33.679Z,101947.41
2023-05-11T00:06:01.887Z,101932.88
2023-05-11T00:08:29.761Z,101803.41
2023-05-11T00:10:57.588Z,101935.50
2023-05-11T00:13:26.884Z,101952.25
2023-05-11T00:15:54.729Z,101950.38
2023-05-11T00:18:23.021Z,101952.75
2023-05-11T00:20:51.179Z,101953.59
2023-05-11T00:23:19.074Z,101950.97
2023-05-11T00:25:46.999Z,101887.19
2023-05-11T00:28:15.080Z,101957.19
2023-05-11T00:30:45.367Z,101942.28
2023-05-11T00:33:13.266Z,101953.59
2023-05-11T00:35:41.711Z,101944.75
2023-05-11T00:38:09.562Z,101925.50
2023-05-11T00:40:37.492Z,101951.72
2023-05-11T00:43:05.650Z,101951.72
2023-05-11T00:45:33.842Z,101955.16
2023-05-11T00:48:03.715Z,101955.97
2023-05-11T00:50:32.065Z,101946.81
2023-05-11T00:53:00.127Z,101946.97
2023-05-11T00:55:28.977Z,101951.25
2023-05-11T00:57:57.124Z,101945.09
2023-05-11T01:00:25.090Z,101949.38
2023-05-11T01:02:53.731Z,101949.38
2023-05-11T01:05:23.578Z,101943.91
2023-05-11T01:08:06.601Z,101945.53
2023-05-11T01:10:42.917Z,101916.38
2023-05-11T01:13:18.610Z,101948.81
2023-05-11T01:15:51.743Z,101940.66
2023-05-11T01:18:24.939Z,101951.44
2023-05-11T01:20:57.884Z,101952.16
2023-05-11T01:23:45.723Z,101942.84
2023-05-11T01:26:47.623Z,101954.53
2023-05-11T01:29:41.506Z,101958.72
2023-05-11T01:32:18.237Z,101953.81
2023-05-11T01:34:47.356Z,101915.19
2023-05-11T01:37:17.708Z,101937.47
2023-05-11T01:39:53.134Z,101940.34
2023-05-11T01:42:26.085Z,101953.56
2023-05-11T01:44:57.062Z,101953.50
2023-05-11T01:47:29.459Z,101951.69
2023-05-11T01:49:58.968Z,101957.59
2023-05-11T01:52:28.236Z,101929.41
2023-05-11T01:54:57.837Z,101935.03
2023-05-11T01:57:26.858Z,101960.50
2023-05-11T01:59:57.395Z,101947.75
2023-05-11T02:02:28.689Z,101961.88
2023-05-11T02:04:57.711Z,101934.06
2023-05-11T02:07:26.032Z,101948.50
2023-05-11T02:09:56.335Z,101957.56
2023-05-11T02:12:26.798Z,101960.63
2023-05-11T02:14:55.825Z,101971.34
2023-05-11T02:17:25.503Z,101962.69
2023-05-11T02:19:55.704Z,101955.69
2023-05-11T02:22:25.726Z,101976.09
2023-05-11T02:24:53.854Z,101968.19
2023-05-11T02:27:21.837Z,101966.47
2023-05-11T02:29:49.775Z,101968.19
2023-05-11T02:32:21.353Z,101975.03
2023-05-11T02:34:55.603Z,101973.97
2023-05-11T02:37:28.343Z,101961.09
2023-05-11T02:40:00.811Z,101976.13
2023-05-11T02:42:32.154Z,101978.66
2023-05-11T02:45:03.392Z,101970.00
2023-05-11T02:47:33.690Z,101960.19
2023-05-11T02:50:05.773Z,101970.00
2023-05-11T02:52:37.379Z,101925.94
2023-05-11T02:55:06.917Z,101977.13
2023-05-11T02:57:34.965Z,101977.22
2023-05-11T03:00:03.979Z,101940.50
2023-05-11T03:02:32.099Z,101981.81
2023-05-11T03:05:00.030Z,101977.56
2023-05-11T03:07:28.174Z,101980.34
2023-05-11T03:09:59.809Z,101982.97
2023-05-11T03:12:31.754Z,101982.88
2023-05-11T03:15:00.233Z,101992.94
2023-05-11T03:17:29.759Z,101926.72
2023-05-11T03:19:59.267Z,101985.59
2023-05-11T03:22:28.460Z,101983.25
2023-05-11T03:24:57.867Z,102001.78
2023-05-11T03:27:26.796Z,101960.28
2023-05-11T03:29:56.809Z,101988.97
2023-05-11T03:32:25.099Z,101927.09
2023-05-11T03:34:53.709Z,101942.63
2023-05-11T03:37:22.621Z,101989.44
2023-05-11T03:39:55.971Z,101932.09
2023-05-11T03:42:27.275Z,101991.75
2023-05-11T03:44:58.530Z,101991.09
2023-05-11T03:47:28.267Z,101926.63
2023-05-11T03:49:57.068Z,101858.47
2023-05-11T03:52:25.674Z,101989.19
2023-05-11T03:54:53.686Z,101992.22
2023-05-11T03:57:21.721Z,101999.63
2023-05-11T03:59:51.189Z,101981.47
2023-05-11T04:02:19.144Z,101972.13
2023-05-11T04:04:47.374Z,101978.97
2023-05-11T04:07:15.350Z,101990.38
2023-05-11T04:09:43.441Z,101989.94
2023-05-11T04:12:11.370Z,101983.44
2023-05-11T04:14:39.307Z,101985.75
2023-05-11T04:17:08.552Z,101990.59
2023-05-11T04:19:36.478Z,101992.78
2023-05-11T04:22:04.375Z,101974.28
2023-05-11T04:24:32.247Z,101988.31
2023-05-11T04:27:00.252Z,101989.47
2023-05-11T04:29:28.288Z,101993.34
2023-05-11T04:31:56.509Z,101991.13
2023-05-11T04:34:25.915Z,101993.28
2023-05-11T04:36:53.822Z,101989.00
2023-05-11T04:39:22.152Z,102000.97
2023-05-11T04:41:50.132Z,101990.59
2023-05-11T04:44:18.156Z,101988.41
2023-05-11T04:46:46.034Z,101947.47
2023-05-11T04:49:14.031Z,101982.81
2023-05-11T04:51:43.342Z,101972.16
2023-05-11T04:54:11.427Z,101998.13
2023-05-11T04:56:40.848Z,101979.75
2023-05-11T04:59:09.129Z,101971.94
2023-05-11T05:01:37.380Z,101984.78
2023-05-11T05:04:05.447Z,101978.91
2023-05-11T05:06:33.921Z,101993.31
2023-05-11T05:09:05.141Z,101972.09
2023-05-11T05:11:33.274Z,101993.91
2023-05-11T05:14:02.547Z,101962.75
2023-05-11T05:16:32.445Z,101982.00
2023-05-11T05:19:00.815Z,101992.88
2023-05-11T05:21:28.988Z,102008.44
2023-05-11T05:23:56.870Z,101989.84
2023-05-11T05:26:26.341Z,101984.00
2023-05-11T05:29:04.129Z,102008.47
2023-05-11T05:31:40.357Z,101994.50
2023-05-11T05:34:15.546Z,101982.25
2023-05-11T05:36:44.520Z,101999.75
2023-05-11T05:39:12.778Z,101995.59
2023-05-11T05:41:43.841Z,102002.16
2023-05-11T05:44:11.758Z,102006.03
2023-05-11T05:46:39.776Z,102008.13
2023-05-11T05:49:07.904Z,101959.16
2023-05-11T05:51:36.009Z,102003.38
2023-05-11T05:54:03.856Z,102006.31
2023-05-11T05:56:32.157Z,102002.22
2023-05-11T05:59:01.427Z,102004.31
2023-05-11T06:01:29.422Z,102001.13
2023-05-11T06:03:57.600Z,101995.09
2023-05-11T06:06:26.082Z,101985.66
2023-05-11T06:08:54.042Z,101991.31
2023-05-11T06:11:22.780Z,102009.13
2023-05-11T06:13:50.746Z,102006.97
2023-05-11T06:16:20.080Z,101990.31
2023-05-11T06:18:48.355Z,102004.06
2023-05-11T06:21:16.369Z,102006.16
2023-05-11T06:23:44.220Z,101989.34
2023-05-11T06:26:12.335Z,101996.88
2023-05-11T06:28:40.296Z,102001.56
2023-05-11T06:31:08.150Z,101986.66
2023-05-11T06:33:37.661Z,101996.91
2023-05-11T06:36:06.482Z,101984.56
2023-05-11T06:38:34.557Z,102007.16
2023-05-11T06:41:02.556Z,102002.72
2023-05-11T06:43:30.588Z,102005.00
2023-05-11T06:45:58.620Z,102009.66
2023-05-11T06:48:30.080Z,102007.31
2023-05-11T06:50:59.449Z,102007.56
2023-05-11T06:53:27.270Z,102018.53
2023-05-11T06:55:55.918Z,102009.19
2023-05-11T06:58:23.984Z,101993.44
2023-05-11T07:00:52.050Z,101999.16
2023-05-11T07:03:20.081Z,102005.03
2023-05-11T07:05:48.050Z,101985.69
2023-05-11T07:08:17.340Z,102004.88
2023-05-11T07:10:45.363Z,102002.53
2023-05-11T07:13:13.352Z,102000.16
2023-05-11T07:15:41.601Z,102003.25
2023-05-11T07:18:09.754Z,102017.19
2023-05-11T07:20:37.708Z,102015.41
2023-05-11T07:23:05.560Z,102015.72
2023-05-11T07:25:35.021Z,102005.38
2023-05-11T07:28:03.681Z,102017.84
2023-05-11T07:30:31.820Z,102013.28
2023-05-11T07:32:59.741Z,102021.69
2023-05-11T07:35:27.707Z,102007.59
2023-05-11T07:37:55.677Z,102008.66
2023-05-11T07:40:23.750Z,102015.16
2023-05-11T07:42:54.456Z,102010.78
2023-05-11T07:45:22.378Z,102022.34
2023-05-11T07:47:50.382Z,102016.16
2023-05-11T07:50:19.186Z,102005.59
2023-05-11T07:52:47.530Z,102000.41
2023-05-11T07:55:15.467Z,102022.66
2023-05-11T07:57:43.377Z,102009.34
2023-05-11T08:00:14.025Z,102012.88
2023-05-11T08:02:42.042Z,102010.16
2023-05-11T08:05:10.458Z,102005.69
2023-05-11T08:07:41.024Z,102011.88
2023-05-11T08:10:10.452Z,102009.97
2023-05-11T08:12:38.938Z,101945.00
2023-05-11T08:15:07.457Z,102010.88
2023-05-11T08:17:37.597Z,102006.28
2023-05-11T08:20:07.010Z,101999.84
2023-05-11T08:22:35.009Z,102011.28
2023-05-11T08:25:03.872Z,102022.53
2023-05-11T08:27:31.776Z,102016.72
2023-05-11T08:30:02.165Z,102006.25
2023-05-11T08:32:30.606Z,102019.81
2023-05-11T08:35:00.238Z,102025.94
2023-05-11T08:37:28.207Z,102011.53
2023-05-11T08:39:56.192Z,102021.91
2023-05-11T08:42:26.220Z,102011.50
2023-05-11T08:44:57.057Z,102028.75
2023-05-11T08:47:25.378Z,102000.50
2023-05-11T08:49:54.000Z,102012.09
2023-05-11T08:52:23.254Z,102019.97
2023-05-11T08:54:53.097Z,102027.06
2023-05-11T08:57:21.775Z,102016.38
2023-05-11T08:59:50.291Z,102021.47
2023-05-11T09:02:20.312Z,102014.47
2023-05-11T09:04:49.296Z,102016.28
2023-05-11T09:07:18.454Z,102014.00
2023-05-11T09:09:48.985Z,102019.69
2023-05-11T09:12:18.050Z,102032.25
2023-05-11T09:14:47.179Z,102026.75
2023-05-11T09:17:15.244Z,102031.94
2023-05-11T09:20:00.062Z,102018.19
2023-05-11T09:22:30.816Z,102030.34
2023-05-11T09:25:01.826Z,102028.41
2023-05-11T09:27:29.886Z,102024.91
2023-05-11T09:29:58.034Z,102033.75
2023-05-11T09:32:26.671Z,102021.13
2023-05-11T09:34:54.664Z,102028.53
2023-05-11T09:37:22.608Z,102033.72
2023-05-11T09:40:25.205Z,102034.44
2023-05-11T09:42:45.117Z,102018.63
2023-05-11T09:45:13.132Z,102030.28
2023-05-11T09:47:41.730Z,102033.13
2023-05-11T09:50:18.780Z,102034.00
2023-05-11T09:52:54.128Z,102040.41
2023-05-11T09:55:22.215Z,102034.47
2023-05-11T09:57:56.577Z,102039.00
2023-05-11T10:00:26.426Z,102033.69
2023-05-11T10:03:01.782Z,102021.31
2023-05-11T10:05:31.876Z,102021.44
2023-05-11T10:08:01.726Z,102038.16
2023-05-11T10:10:33.125Z,102037.25
2023-05-11T10:13:03.652Z,102040.84
2023-05-11T10:15:36.705Z,101835.34
2023-05-11T10:18:07.826Z,102000.41
2023-05-11T10:20:36.007Z,102022.28
2023-05-11T10:23:04.439Z,102013.41
2023-05-11T10:25:32.513Z,102047.59
2023-05-11T10:28:00.643Z,102008.53
2023-05-11T10:30:30.818Z,102018.28
2023-05-11T10:32:59.099Z,101997.88
2023-05-11T10:35:27.745Z,102018.00
2023-05-11T10:37:55.934Z,102016.81
2023-05-11T10:40:23.808Z,102019.19
2023-05-11T10:43:19.081Z,102014.09
2023-05-11T10:45:56.312Z,102024.00
2023-05-11T10:48:54.968Z,101914.25
2023-05-11T10:51:47.600Z,102029.97
2023-05-11T10:54:30.793Z,101973.81
2023-05-11T10:57:13.302Z,101940.75
2023-05-11T11:00:11.266Z,102017.59
2023-05-11T11:02:40.724Z,102006.16
2023-05-11T11:05:14.137Z,102016.53
2023-05-11T11:08:03.874Z,101966.59
2023-05-11T11:10:33.567Z,102011.06
2023-05-11T11:13:03.874Z,101998.50
2023-05-11T11:16:05.247Z,102029.16
2023-05-11T11:18:34.878Z,102017.28
2023-05-11T11:21:05.319Z,102024.81
2023-05-11T11:23:49.126Z,102027.44
2023-05-11T11:26:21.139Z,102019.09
2023-05-11T11:29:11.727Z,102034.16
2023-05-11T11:31:40.780Z,102038.78
2023-05-11T11:34:37.516Z,102044.84
2023-05-11T11:37:06.833Z,102043.63
2023-05-11T11:39:50.162Z,102026.66
2023-05-11T11:42:19.509Z,102013.88
2023-05-11T11:44:48.473Z,102045.88
2023-05-11T11:47:17.584Z,102023.91
2023-05-11T11:49:48.726Z,102021.38
2023-05-11T11:52:34.734Z,102036.31
2023-05-11T11:55:05.245Z,102040.59
2023-05-11T11:57:51.211Z,102039.38
2023-05-11T12:00:22.820Z,102030.72
2023-05-11T12:02:50.962Z,102035.44
2023-05-11T12:05:22.848Z,102048.22
2023-05-11T12:07:52.526Z,102044.53
2023-05-11T12:10:21.972Z,102036.50
2023-05-11T12:12:51.390Z,102043.75
2023-05-11T12:15:26.024Z,102067.16
2023-05-11T12:17:54.174Z,102071.69
2023-05-11T12:20:24.053Z,102032.13
2023-05-11T12:22:52.328Z,102043.69
2023-05-11T12:25:22.020Z,102055.56
2023-05-11T12:27:51.901Z,102044.47
2023-05-11T12:30:25.540Z,102052.16
2023-05-11T12:32:57.386Z,102055.06
2023-05-11T12:35:29.168Z,102061.53
2023-05-11T12:37:58.242Z,102052.34
2023-05-11T12:40:26.290Z,102053.00
2023-05-11T12:42:55.924Z,101937.84
2023-05-11T12:45:25.180Z,102041.44
2023-05-11T12:47:54.970Z,102054.13
2023-05-11T12:50:23.927Z,102062.97
2023-05-11T12:52:53.239Z,102048.72
2023-05-11T12:55:31.182Z,102065.91
2023-05-11T12:58:11.536Z,102041.09
2023-05-11T13:00:52.132Z,102041.91
2023-05-11T13:03:23.075Z,102019.72
2023-05-11T13:05:51.601Z,102028.91
2023-05-11T13:08:21.416Z,102037.06
2023-05-11T13:10:49.225Z,102054.09
2023-05-11T13:13:28.463Z,102034.94
2023-05-11T13:15:56.734Z,102031.91
2023-05-11T13:18:24.771Z,102041.84
2023-05-11T13:21:06.212Z,102037.38
2023-05-11T13:23:36.933Z,102039.53
2023-05-11T13:26:04.868Z,102037.59
2023-05-11T13:28:35.253Z,102039.56
2023-05-11T13:31:03.240Z,102034.03
2023-05-11T13:33:31.173Z,102038.53
2023-05-11T13:35:59.083Z,102041.50
2023-05-11T13:38:26.929Z,102032.38
2023-05-11T13:40:56.430Z,102023.63
2023-05-11T13:43:26.619Z,102031.16
2023-05-11T13:45:54.597Z,102036.63
2023-05-11T13:48:22.699Z,102022.34
2023-05-11T13:50:50.807Z,102042.69
2023-05-11T13:53:18.642Z,102009.44
2023-05-11T13:55:47.880Z,102024.34
2023-05-11T13:58:17.914Z,102026.50
2023-05-11T14:00:56.671Z,102034.91
2023-05-11T14:03:35.060Z,102022.03
2023-05-11T14:06:04.054Z,102054.75
2023-05-11T14:08:31.900Z,102043.13
2023-05-11T14:11:01.149Z,102032.50
2023-05-11T14:13:30.351Z,102029.09
2023-05-11T14:15:58.503Z,102031.97
2023-05-11T14:18:26.743Z,102036.31
2023-05-11T14:20:54.771Z,102028.63
2023-05-11T14:23:22.632Z,102026.72
2023-05-11T14:25:50.595Z,102027.56
2023-05-11T14:28:18.759Z,102044.16
2023-05-11T14:30:48.303Z,102028.09
2023-05-11T14:33:16.370Z,102030.22
2023-05-11T14:35:44.374Z,101948.13
2023-05-11T14:38:12.204Z,102015.13
2023-05-11T14:40:40.271Z,102025.88
2023-05-11T14:43:08.277Z,102024.31
2023-05-11T14:45:37.002Z,102033.03
2023-05-11T14:48:09.396Z,102035.28
2023-05-11T14:50:37.369Z,102009.50
2023-05-11T14:53:05.633Z,102024.22
2023-05-11T14:55:33.950Z,102019.28
2023-05-11T14:58:04.123Z,102030.34
2023-05-11T15:00:32.951Z,101978.97
2023-05-11T15:03:00.975Z,102033.38
2023-05-11T15:05:30.203Z,102022.56
2023-05-11T15:07:59.819Z,102034.38
2023-05-11T15:10:28.131Z,102026.38
2023-05-11T15:12:56.046Z,102019.41
2023-05-11T15:15:26.153Z,102024.19
2023-05-11T15:17:54.156Z,102022.31
2023-05-11T15:20:22.091Z,102025.41
2023-05-11T15:22:51.468Z,102010.34
2023-05-11T15:25:19.984Z,102031.22
2023-05-11T15:27:48.081Z,102036.34
2023-05-11T15:30:16.216Z,102036.41
2023-05-11T15:32:44.278Z,102038.88
2023-05-11T15:35:12.185Z,102011.72
2023-05-11T15:37:40.033Z,102033.44
2023-05-11T15:40:10.781Z,102029.13
2023-05-11T15:42:38.690Z,102015.47
2023-05-11T15:45:07.767Z,102035.13
2023-05-11T15:47:35.736Z,102033.72
2023-05-11T15:50:03.619Z,102038.53
2023-05-11T15:52:31.692Z,102026.13
2023-05-11T15:54:59.644Z,102027.69
2023-05-11T15:57:28.881Z,102045.72
2023-05-11T15:59:56.770Z,102042.28
2023-05-11T16:02:24.786Z,102041.13
2023-05-11T16:04:52.797Z,102037.19
2023-05-11T16:07:20.660Z,102031.16
2023-05-11T16:09:48.805Z,102023.03
2023-05-11T16:12:16.684Z,102029.91
2023-05-11T16:14:45.937Z,102045.31
2023-05-11T16:17:14.218Z,102030.66
2023-05-11T16:19:42.163Z,102035.91
2023-05-11T16:22:10.132Z,102049.56
2023-05-11T16:24:38.107Z,102047.13
2023-05-11T16:27:06.343Z,102040.97
2023-05-11T16:29:34.480Z,102016.13
2023-05-11T16:32:03.855Z,102049.09
2023-05-11T16:34:32.072Z,102038.53
2023-05-11T16:36:59.956Z,102051.91
2023-05-11T16:39:27.907Z,102058.16
2023-05-11T16:41:55.806Z,102052.88
2023-05-11T16:44:23.991Z,102048.47
2023-05-11T16:46:52.441Z,102057.34
2023-05-11T16:49:21.775Z,102041.31
2023-05-11T16:51:49.715Z,102049.34
2023-05-11T16:54:17.848Z,102069.88
2023-05-11T16:56:45.826Z,102019.09
2023-05-11T16:59:13.685Z,102054.56
2023-05-11T17:01:42.074Z,102024.13
2023-05-11T17:04:10.342Z,102066.88
2023-05-11T17:06:39.962Z,102058.81
2023-05-11T17:09:08.022Z,102063.09
2023-05-11T17:11:35.997Z,102061.03
2023-05-11T17:14:04.171Z,102065.22
2023-05-11T17:16:32.304Z,102064.88
2023-05-11T17:19:00.394Z,102052.94
2023-05-11T17:21:30.886Z,102070.44
2023-05-11T17:24:00.314Z,102065.84
2023-05-11T17:26:39.145Z,102078.09
2023-05-11T17:29:15.142Z,102061.69
2023-05-11T17:31:43.318Z,102072.28
2023-05-11T17:34:11.449Z,102080.06
2023-05-11T17:36:39.785Z,102084.28
2023-05-11T17:39:09.916Z,102097.38
2023-05-11T17:41:37.761Z,102064.88
2023-05-11T17:44:06.082Z,102081.59
2023-05-11T17:46:34.670Z,102075.88
2023-05-11T17:49:02.904Z,102091.75
2023-05-11T17:51:31.265Z,102078.94
2023-05-11T17:53:59.304Z,102097.38
2023-05-11T17:56:29.002Z,102067.78
2023-05-11T17:58:57.023Z,102094.34
2023-05-11T18:01:25.351Z,102094.09
2023-05-11T18:03:53.450Z,102095.66
2023-05-11T18:06:21.581Z,102096.41
2023-05-11T18:08:49.628Z,102113.91
2023-05-11T18:11:17.686Z,102102.13
2023-05-11T18:13:47.951Z,102094.09
2023-05-11T18:16:15.886Z,102102.84
2023-05-11T18:18:44.912Z,102096.63
2023-05-11T18:21:12.980Z,102088.38
2023-05-11T18:23:40.847Z,102107.66
2023-05-11T18:26:08.896Z,102115.34
2023-05-11T18:28:36.818Z,102119.53
2023-05-11T18:31:06.098Z,102110.66
2023-05-11T18:33:33.937Z,102085.56
2023-05-11T18:36:03.241Z,102080.03
2023-05-11T18:38:31.308Z,102127.19
2023-05-11T18:40:59.244Z,102059.06
2023-05-11T18:43:27.291Z,102131.38
2023-05-11T18:45:55.173Z,102131.19
2023-05-11T18:48:24.814Z,102128.38
2023-05-11T18:50:55.506Z,102137.88
2023-05-11T18:53:23.413Z,102085.66
2023-05-11T18:55:53.553Z,102133.09
2023-05-11T18:58:22.299Z,102134.59
2023-05-11T19:00:51.165Z,102128.88
2023-05-11T19:03:21.201Z,102150.97
2023-05-11T19:05:51.851Z,102043.31
2023-05-11T19:08:19.709Z,102155.97
2023-05-11T19:10:48.219Z,102152.34
2023-05-11T19:13:16.272Z,102159.22
2023-05-11T19:15:44.655Z,102151.13
2023-05-11T19:18:12.671Z,102158.75
2023-05-11T19:20:40.715Z,102159.47
2023-05-11T19:23:09.927Z,102162.69
2023-05-11T19:25:37.757Z,102168.56
2023-05-11T19:28:06.304Z,102178.78
2023-05-11T19:30:34.152Z,102167.97
2023-05-11T19:33:02.264Z,102174.84
2023-05-11T19:35:30.405Z,102178.13
2023-05-11T19:37:58.378Z,102182.97
2023-05-11T19:40:45.419Z,102182.66
2023-05-11T19:43:14.362Z,102184.06
2023-05-11T19:45:43.673Z,102172.97
2023-05-11T19:48:11.563Z,102180.72
2023-05-11T19:50:39.459Z,102183.16
2023-05-11T19:53:07.552Z,102180.25
2023-05-11T19:55:37.346Z,102188.78
2023-05-11T19:58:06.883Z,102184.94
2023-05-11T20:00:34.986Z,102119.22
2023-05-11T20:03:05.592Z,102183.66
2023-05-11T20:05:33.552Z,102179.84
2023-05-11T20:08:01.856Z,102176.13
2023-05-11T20:10:29.834Z,102173.28
2023-05-11T20:12:59.544Z,102171.13
2023-05-11T20:15:27.437Z,102170.84
2023-05-11T20:17:55.419Z,102191.06
2023-05-11T20:20:23.816Z,102176.75
2023-05-11T20:22:52.005Z,102187.94
2023-05-11T20:25:20.339Z,102182.59
2023-05-11T20:27:48.340Z,102184.16
2023-05-11T20:30:18.249Z,102185.75
2023-05-11T20:35:17.358Z,102145.63
2023-05-11T20:37:45.373Z,102195.53
2023-05-11T20:40:14.155Z,102189.31
2023-05-11T20:42:42.115Z,102192.59
2023-05-11T20:45:11.015Z,102192.47
2023-05-11T20:47:40.280Z,102196.63
2023-05-11T20:50:10.085Z,102166.94
2023-05-11T20:52:38.308Z,102119.09
2023-05-11T20:55:07.251Z,102192.59
2023-05-11T20:57:35.260Z,102197.63
2023-05-11T21:00:07.440Z,102186.69
2023-05-11T21:02:35.517Z,102196.47
2023-05-11T21:05:04.968Z,102208.72
2023-05-11T21:07:32.836Z,102198.00
2023-05-11T21:10:01.744Z,102195.22
2023-05-11T21:12:29.808Z,102200.22
2023-05-11T21:14:57.725Z,102202.72
2023-05-11T21:17:25.721Z,102206.06
2023-05-11T21:19:53.709Z,102206.81
2023-05-11T21:22:23.045Z,102204.00
2023-05-11T21:24:50.955Z,102207.38
2023-05-11T21:27:18.879Z,102211.75
2023-05-11T21:29:46.695Z,102221.44
2023-05-11T21:32:14.668Z,102225.94
2023-05-11T21:34:42.625Z,102206.16
2023-05-11T21:37:10.634Z,102219.56
2023-05-11T21:39:39.818Z,102211.28
2023-05-11T21:42:09.131Z,102218.19
2023-05-11T21:44:36.978Z,102234.94
2023-05-11T21:47:05.253Z,102243.66
2023-05-11T21:49:33.254Z,102225.69
2023-05-11T21:52:03.294Z,102234.47
2023-05-11T21:54:31.123Z,102238.00
2023-05-11T21:57:00.553Z,102234.47
2023-05-11T21:59:28.405Z,102239.56
2023-05-11T22:01:57.237Z,102249.19
2023-05-11T22:04:25.513Z,102213.19
2023-05-11T22:06:53.331Z,102253.09
2023-05-11T22:09:21.267Z,102251.91
2023-05-11T22:11:49.168Z,102251.56
2023-05-11T22:14:18.399Z,102251.22
2023-05-11T22:16:46.328Z,102253.53
2023-05-11T22:19:14.439Z,102253.41
2023-05-11T22:21:42.332Z,102264.59
2023-05-11T22:24:10.645Z,102112.59
2023-05-11T22:26:38.645Z,102263.47
2023-05-11T22:29:06.665Z,102262.50
2023-05-11T22:31:36.045Z,102255.00
2023-05-11T22:34:04.062Z,102255.75
2023-05-11T22:36:33.221Z,102258.47
2023-05-11T22:39:01.056Z,102275.19
2023-05-11T22:41:29.055Z,102273.16
2023-05-11T22:43:56.883Z,102279.16
2023-05-11T22:46:24.840Z,102268.38
2023-05-11T22:48:54.212Z,102273.47
2023-05-11T22:51:22.038Z,102275.03
2023-05-11T22:53:49.948Z,102274.00
2023-05-11T22:56:18.027Z,102274.66
2023-05-11T22:58:45.863Z,102281.34
2023-05-11T23:01:14.241Z,102285.53
2023-05-11T23:03:42.272Z,102285.31
2023-05-11T23:06:12.524Z,102283.28
2023-05-11T23:08:40.468Z,102278.69
2023-05-11T23:11:08.521Z,102257.44
2023-05-11T23:13:36.407Z,102292.41
2023-05-11T23:16:04.636Z,102281.75
2023-05-11T23:18:33.194Z,102289.47
2023-05-11T23:21:01.866Z,102287.66
2023-05-11T23:23:31.298Z,102277.69
2023-05-11T23:25:59.217Z,102293.50
2023-05-11T23:28:27.081Z,102288.09
2023-05-11T23:30:54.890Z,102280.72
2023-05-11T23:33:22.956Z,102286.94
2023-05-11T23:35:50.870Z,102296.47
2023-05-11T23:38:18.889Z,102295.34
2023-05-11T23:40:48.723Z,102297.81
2023-05-11T23:43:16.785Z,102297.66
2023-05-11T23:45:44.651Z,102304.63
2023-05-11T23:48:12.710Z,102296.69
2023-05-11T23:50:40.639Z,102309.78
2023-05-11T23:53:08.493Z,102302.59
2023-05-11T23:55:36.367Z,102298.06
2023-05-11T23:58:05.585Z,102297.19
